sensor_id;sensor_type;location;lat;lon;timestamp;P1;durP1;ratioP1;P2;durP2;ratioP2
23266;SDS011;11802;53.160;8.214;2024-03-29T00:00:52;3.33;;;1.20;;
23266;SDS011;11802;53.160;8.214;2024-03-29T00:03:18;3.33;;;1.37;;
23266;SDS011;11802;53.160;8.214;2024-03-29T00:05:45;4.27;;;1.53;;
23266;SDS011;11802;53.160;8.214;2024-03-29T00:08:10;6.43;;;1.60;;
23266;SDS011;11802;53.160;8.214;2024-03-29T00:10:36;3.73;;;1.30;;
23266;SDS011;11802;53.160;8.214;2024-03-29T00:13:01;4.47;;;1.40;;
23266;SDS011;11802;53.160;8.214;2024-03-29T00:15:27;4.00;;;1.30;;
23266;SDS011;11802;53.160;8.214;2024-03-29T00:17:53;3.10;;;1.30;;
23266;SDS011;11802;53.160;8.214;2024-03-29T00:20:18;5.97;;;1.40;;
23266;SDS011;11802;53.160;8.214;2024-03-29T00:22:46;3.77;;;1.40;;
23266;SDS011;11802;53.160;8.214;2024-03-29T00:25:12;5.40;;;1.40;;
23266;SDS011;11802;53.160;8.214;2024-03-29T00:27:37;5.90;;;1.50;;
23266;SDS011;11802;53.160;8.214;2024-03-29T00:30:03;5.37;;;1.40;;
23266;SDS011;11802;53.160;8.214;2024-03-29T00:32:29;2.40;;;1.20;;
23266;SDS011;11802;53.160;8.214;2024-03-29T00:34:55;4.37;;;1.60;;
23266;SDS011;11802;53.160;8.214;2024-03-29T00:37:22;4.83;;;1.23;;
23266;SDS011;11802;53.160;8.214;2024-03-29T00:39:48;4.50;;;1.27;;
23266;SDS011;11802;53.160;8.214;2024-03-29T00:42:14;7.23;;;1.53;;
23266;SDS011;11802;53.160;8.214;2024-03-29T00:44:44;6.80;;;1.37;;
23266;SDS011;11802;53.160;8.214;2024-03-29T00:47:10;4.13;;;1.60;;
23266;SDS011;11802;53.160;8.214;2024-03-29T00:49:36;5.30;;;1.20;;
23266;SDS011;11802;53.160;8.214;2024-03-29T00:52:02;4.83;;;1.60;;
23266;SDS011;11802;53.160;8.214;2024-03-29T00:54:28;6.83;;;1.33;;
23266;SDS011;11802;53.160;8.214;2024-03-29T00:56:54;4.47;;;1.20;;
23266;SDS011;11802;53.160;8.214;2024-03-29T00:59:20;5.53;;;1.70;;
23266;SDS011;11802;53.160;8.214;2024-03-29T01:01:45;4.13;;;1.40;;
23266;SDS011;11802;53.160;8.214;2024-03-29T01:04:11;3.47;;;1.20;;
23266;SDS011;11802;53.160;8.214;2024-03-29T01:06:37;4.10;;;1.20;;
23266;SDS011;11802;53.160;8.214;2024-03-29T01:09:04;3.20;;;1.20;;
23266;SDS011;11802;53.160;8.214;2024-03-29T01:11:30;6.23;;;1.20;;
23266;SDS011;11802;53.160;8.214;2024-03-29T01:13:56;9.13;;;1.73;;
23266;SDS011;11802;53.160;8.214;2024-03-29T01:16:21;5.10;;;1.50;;
23266;SDS011;11802;53.160;8.214;2024-03-29T01:18:47;2.53;;;1.20;;
23266;SDS011;11802;53.160;8.214;2024-03-29T01:21:13;5.30;;;1.30;;
23266;SDS011;11802;53.160;8.214;2024-03-29T01:23:38;3.80;;;1.00;;
23266;SDS011;11802;53.160;8.214;2024-03-29T01:26:05;3.20;;;1.30;;
23266;SDS011;11802;53.160;8.214;2024-03-29T01:28:31;2.37;;;0.90;;
23266;SDS011;11802;53.160;8.214;2024-03-29T01:30:57;3.77;;;1.00;;
23266;SDS011;11802;53.160;8.214;2024-03-29T01:33:23;4.47;;;1.37;;
23266;SDS011;11802;53.160;8.214;2024-03-29T01:35:49;2.77;;;0.90;;
23266;SDS011;11802;53.160;8.214;2024-03-29T01:38:15;6.77;;;1.60;;
23266;SDS011;11802;53.160;8.214;2024-03-29T01:40:41;4.33;;;1.23;;
23266;SDS011;11802;53.160;8.214;2024-03-29T01:43:07;7.17;;;1.37;;
23266;SDS011;11802;53.160;8.214;2024-03-29T01:45:34;4.50;;;1.10;;
23266;SDS011;11802;53.160;8.214;2024-03-29T01:48:03;5.80;;;1.30;;
23266;SDS011;11802;53.160;8.214;2024-03-29T01:50:29;4.17;;;1.13;;
23266;SDS011;11802;53.160;8.214;2024-03-29T01:52:55;6.90;;;1.30;;
23266;SDS011;11802;53.160;8.214;2024-03-29T01:55:21;4.63;;;1.30;;
23266;SDS011;11802;53.160;8.214;2024-03-29T01:57:47;5.37;;;1.43;;
23266;SDS011;11802;53.160;8.214;2024-03-29T02:00:13;2.83;;;1.17;;
23266;SDS011;11802;53.160;8.214;2024-03-29T02:02:39;3.43;;;1.00;;
23266;SDS011;11802;53.160;8.214;2024-03-29T02:05:05;4.77;;;1.30;;
23266;SDS011;11802;53.160;8.214;2024-03-29T02:07:31;2.67;;;1.00;;
23266;SDS011;11802;53.160;8.214;2024-03-29T02:09:57;4.57;;;1.10;;
23266;SDS011;11802;53.160;8.214;2024-03-29T02:12:23;4.57;;;1.00;;
23266;SDS011;11802;53.160;8.214;2024-03-29T02:14:48;3.50;;;1.03;;
23266;SDS011;11802;53.160;8.214;2024-03-29T02:17:14;6.10;;;1.33;;
23266;SDS011;11802;53.160;8.214;2024-03-29T02:19:39;4.47;;;1.00;;
23266;SDS011;11802;53.160;8.214;2024-03-29T02:22:05;4.47;;;1.27;;
23266;SDS011;11802;53.160;8.214;2024-03-29T02:24:35;6.67;;;1.30;;
23266;SDS011;11802;53.160;8.214;2024-03-29T02:27:01;4.83;;;1.17;;
23266;SDS011;11802;53.160;8.214;2024-03-29T02:29:27;4.77;;;1.37;;
23266;SDS011;11802;53.160;8.214;2024-03-29T02:31:54;3.13;;;0.90;;
23266;SDS011;11802;53.160;8.214;2024-03-29T02:34:20;6.07;;;1.13;;
23266;SDS011;11802;53.160;8.214;2024-03-29T02:36:45;5.00;;;1.00;;
23266;SDS011;11802;53.160;8.214;2024-03-29T02:39:11;3.03;;;1.03;;
23266;SDS011;11802;53.160;8.214;2024-03-29T02:41:36;0.70;;;0.70;;
23266;SDS011;11802;53.160;8.214;2024-03-29T02:44:02;2.60;;;1.10;;
23266;SDS011;11802;53.160;8.214;2024-03-29T02:46:27;2.90;;;0.90;;
23266;SDS011;11802;53.160;8.214;2024-03-29T02:48:53;5.23;;;1.50;;
23266;SDS011;11802;53.160;8.214;2024-03-29T02:51:19;7.10;;;1.20;;
23266;SDS011;11802;53.160;8.214;2024-03-29T02:53:44;6.87;;;1.10;;
23266;SDS011;11802;53.160;8.214;2024-03-29T02:56:10;3.03;;;1.07;;
23266;SDS011;11802;53.160;8.214;2024-03-29T02:58:35;1.93;;;0.97;;
23266;SDS011;11802;53.160;8.214;2024-03-29T03:01:07;5.37;;;1.20;;
23266;SDS011;11802;53.160;8.214;2024-03-29T03:03:35;5.80;;;1.13;;
23266;SDS011;11802;53.160;8.214;2024-03-29T03:06:01;4.13;;;1.33;;
23266;SDS011;11802;53.160;8.214;2024-03-29T03:08:30;3.53;;;0.93;;
23266;SDS011;11802;53.160;8.214;2024-03-29T03:11:14;3.33;;;0.80;;
23266;SDS011;11802;53.160;8.214;2024-03-29T03:13:40;3.83;;;0.97;;
23266;SDS011;11802;53.160;8.214;2024-03-29T03:16:05;2.87;;;0.80;;
23266;SDS011;11802;53.160;8.214;2024-03-29T03:18:34;5.90;;;1.20;;
23266;SDS011;11802;53.160;8.214;2024-03-29T03:21:00;3.27;;;1.00;;
23266;SDS011;11802;53.160;8.214;2024-03-29T03:23:26;3.83;;;0.80;;
23266;SDS011;11802;53.160;8.214;2024-03-29T03:25:59;5.17;;;1.27;;
23266;SDS011;11802;53.160;8.214;2024-03-29T03:28:26;5.90;;;1.10;;
23266;SDS011;11802;53.160;8.214;2024-03-29T03:30:52;2.87;;;0.90;;
23266;SDS011;11802;53.160;8.214;2024-03-29T03:33:18;2.63;;;0.80;;
23266;SDS011;11802;53.160;8.214;2024-03-29T03:35:45;6.80;;;1.20;;
23266;SDS011;11802;53.160;8.214;2024-03-29T03:38:11;4.13;;;1.17;;
23266;SDS011;11802;53.160;8.214;2024-03-29T03:40:37;4.87;;;1.10;;
23266;SDS011;11802;53.160;8.214;2024-03-29T03:43:03;5.00;;;0.90;;
23266;SDS011;11802;53.160;8.214;2024-03-29T03:45:34;2.73;;;0.90;;
23266;SDS011;11802;53.160;8.214;2024-03-29T03:48:01;2.80;;;1.00;;
23266;SDS011;11802;53.160;8.214;2024-03-29T03:50:30;4.97;;;1.20;;
23266;SDS011;11802;53.160;8.214;2024-03-29T03:52:56;4.97;;;1.10;;
23266;SDS011;11802;53.160;8.214;2024-03-29T03:55:21;3.87;;;1.00;;
23266;SDS011;11802;53.160;8.214;2024-03-29T03:57:47;2.30;;;0.70;;
23266;SDS011;11802;53.160;8.214;2024-03-29T04:00:12;5.07;;;1.10;;
23266;SDS011;11802;53.160;8.214;2024-03-29T04:02:38;4.23;;;1.10;;
23266;SDS011;11802;53.160;8.214;2024-03-29T04:05:04;3.10;;;1.17;;
23266;SDS011;11802;53.160;8.214;2024-03-29T04:07:30;3.57;;;0.90;;
23266;SDS011;11802;53.160;8.214;2024-03-29T04:09:56;6.87;;;1.00;;
23266;SDS011;11802;53.160;8.214;2024-03-29T04:12:21;6.03;;;1.00;;
23266;SDS011;11802;53.160;8.214;2024-03-29T04:14:47;3.80;;;1.67;;
23266;SDS011;11802;53.160;8.214;2024-03-29T04:17:12;5.43;;;1.00;;
23266;SDS011;11802;53.160;8.214;2024-03-29T04:19:38;3.17;;;0.87;;
23266;SDS011;11802;53.160;8.214;2024-03-29T04:22:03;2.17;;;0.90;;
23266;SDS011;11802;53.160;8.214;2024-03-29T04:24:29;6.20;;;0.97;;
23266;SDS011;11802;53.160;8.214;2024-03-29T04:26:55;5.23;;;1.03;;
23266;SDS011;11802;53.160;8.214;2024-03-29T04:29:20;3.03;;;1.00;;
23266;SDS011;11802;53.160;8.214;2024-03-29T04:31:46;3.37;;;1.07;;
23266;SDS011;11802;53.160;8.214;2024-03-29T04:34:11;3.87;;;0.73;;
23266;SDS011;11802;53.160;8.214;2024-03-29T04:36:37;4.53;;;0.93;;
23266;SDS011;11802;53.160;8.214;2024-03-29T04:39:03;3.50;;;0.93;;
23266;SDS011;11802;53.160;8.214;2024-03-29T04:41:29;4.17;;;0.90;;
23266;SDS011;11802;53.160;8.214;2024-03-29T04:43:59;2.63;;;0.87;;
23266;SDS011;11802;53.160;8.214;2024-03-29T04:46:31;6.67;;;0.90;;
23266;SDS011;11802;53.160;8.214;2024-03-29T04:48:57;3.63;;;0.97;;
23266;SDS011;11802;53.160;8.214;2024-03-29T04:51:23;4.30;;;0.83;;
23266;SDS011;11802;53.160;8.214;2024-03-29T04:53:48;4.53;;;1.00;;
23266;SDS011;11802;53.160;8.214;2024-03-29T04:56:14;4.37;;;1.00;;
23266;SDS011;11802;53.160;8.214;2024-03-29T04:58:40;5.40;;;1.07;;
23266;SDS011;11802;53.160;8.214;2024-03-29T05:01:05;1.97;;;0.93;;
23266;SDS011;11802;53.160;8.214;2024-03-29T05:03:32;5.50;;;1.03;;
23266;SDS011;11802;53.160;8.214;2024-03-29T05:05:57;6.53;;;1.30;;
23266;SDS011;11802;53.160;8.214;2024-03-29T05:08:23;3.00;;;0.80;;
23266;SDS011;11802;53.160;8.214;2024-03-29T05:10:49;2.93;;;0.87;;
23266;SDS011;11802;53.160;8.214;2024-03-29T05:13:15;3.23;;;0.93;;
23266;SDS011;11802;53.160;8.214;2024-03-29T05:15:41;3.10;;;1.00;;
23266;SDS011;11802;53.160;8.214;2024-03-29T05:18:07;4.00;;;0.80;;
23266;SDS011;11802;53.160;8.214;2024-03-29T05:20:33;6.87;;;1.17;;
23266;SDS011;11802;53.160;8.214;2024-03-29T05:22:59;5.17;;;1.00;;
23266;SDS011;11802;53.160;8.214;2024-03-29T05:25:24;6.47;;;1.97;;
23266;SDS011;11802;53.160;8.214;2024-03-29T05:27:50;4.47;;;1.10;;
23266;SDS011;11802;53.160;8.214;2024-03-29T05:30:16;3.57;;;1.07;;
23266;SDS011;11802;53.160;8.214;2024-03-29T05:32:42;4.83;;;0.80;;
23266;SDS011;11802;53.160;8.214;2024-03-29T05:35:09;2.50;;;0.73;;
23266;SDS011;11802;53.160;8.214;2024-03-29T05:37:35;5.83;;;0.93;;
23266;SDS011;11802;53.160;8.214;2024-03-29T05:40:01;5.50;;;1.13;;
23266;SDS011;11802;53.160;8.214;2024-03-29T05:42:30;4.57;;;1.00;;
23266;SDS011;11802;53.160;8.214;2024-03-29T05:44:56;3.57;;;0.83;;
23266;SDS011;11802;53.160;8.214;2024-03-29T05:47:22;5.00;;;0.90;;
23266;SDS011;11802;53.160;8.214;2024-03-29T05:49:48;1.93;;;0.93;;
23266;SDS011;11802;53.160;8.214;2024-03-29T05:52:14;3.70;;;0.90;;
23266;SDS011;11802;53.160;8.214;2024-03-29T05:54:44;4.33;;;0.83;;
23266;SDS011;11802;53.160;8.214;2024-03-29T05:57:10;3.00;;;1.17;;
23266;SDS011;11802;53.160;8.214;2024-03-29T05:59:36;3.20;;;0.80;;
23266;SDS011;11802;53.160;8.214;2024-03-29T06:02:03;4.67;;;0.97;;
23266;SDS011;11802;53.160;8.214;2024-03-29T06:04:28;2.57;;;1.00;;
23266;SDS011;11802;53.160;8.214;2024-03-29T06:06:57;3.87;;;0.80;;
23266;SDS011;11802;53.160;8.214;2024-03-29T06:09:26;3.50;;;0.87;;
23266;SDS011;11802;53.160;8.214;2024-03-29T06:11:54;5.73;;;1.07;;
23266;SDS011;11802;53.160;8.214;2024-03-29T06:14:20;2.93;;;0.97;;
23266;SDS011;11802;53.160;8.214;2024-03-29T06:17:04;3.70;;;1.00;;
23266;SDS011;11802;53.160;8.214;2024-03-29T06:19:48;3.37;;;0.87;;
23266;SDS011;11802;53.160;8.214;2024-03-29T06:22:20;2.13;;;0.77;;
23266;SDS011;11802;53.160;8.214;2024-03-29T06:24:45;3.90;;;1.03;;
23266;SDS011;11802;53.160;8.214;2024-03-29T06:27:12;3.60;;;1.30;;
23266;SDS011;11802;53.160;8.214;2024-03-29T06:29:41;4.50;;;1.17;;
23266;SDS011;11802;53.160;8.214;2024-03-29T06:32:06;5.60;;;0.80;;
23266;SDS011;11802;53.160;8.214;2024-03-29T06:34:32;3.70;;;1.10;;
23266;SDS011;11802;53.160;8.214;2024-03-29T06:36:57;2.67;;;0.90;;
23266;SDS011;11802;53.160;8.214;2024-03-29T06:39:23;3.67;;;1.03;;
23266;SDS011;11802;53.160;8.214;2024-03-29T06:41:50;3.30;;;1.00;;
23266;SDS011;11802;53.160;8.214;2024-03-29T06:44:16;3.57;;;1.03;;
23266;SDS011;11802;53.160;8.214;2024-03-29T06:46:42;4.13;;;1.00;;
23266;SDS011;11802;53.160;8.214;2024-03-29T06:49:07;2.73;;;1.00;;
23266;SDS011;11802;53.160;8.214;2024-03-29T06:51:33;3.97;;;1.10;;
23266;SDS011;11802;53.160;8.214;2024-03-29T06:53:58;5.23;;;0.90;;
23266;SDS011;11802;53.160;8.214;2024-03-29T06:56:24;3.77;;;0.90;;
23266;SDS011;11802;53.160;8.214;2024-03-29T06:58:49;2.93;;;0.90;;
23266;SDS011;11802;53.160;8.214;2024-03-29T07:01:15;2.63;;;1.10;;
23266;SDS011;11802;53.160;8.214;2024-03-29T07:03:41;5.17;;;1.10;;
23266;SDS011;11802;53.160;8.214;2024-03-29T07:06:06;3.60;;;0.77;;
23266;SDS011;11802;53.160;8.214;2024-03-29T07:08:32;3.20;;;0.80;;
23266;SDS011;11802;53.160;8.214;2024-03-29T07:10:58;5.13;;;1.20;;
23266;SDS011;11802;53.160;8.214;2024-03-29T07:13:24;3.77;;;1.00;;
23266;SDS011;11802;53.160;8.214;2024-03-29T07:15:52;4.23;;;1.10;;
23266;SDS011;11802;53.160;8.214;2024-03-29T07:18:18;2.80;;;0.87;;
23266;SDS011;11802;53.160;8.214;2024-03-29T07:20:43;2.43;;;0.87;;
23266;SDS011;11802;53.160;8.214;2024-03-29T07:23:09;3.07;;;1.10;;
23266;SDS011;11802;53.160;8.214;2024-03-29T07:25:36;2.73;;;0.80;;
23266;SDS011;11802;53.160;8.214;2024-03-29T07:28:02;4.00;;;0.80;;
23266;SDS011;11802;53.160;8.214;2024-03-29T07:30:27;2.93;;;0.90;;
23266;SDS011;11802;53.160;8.214;2024-03-29T07:32:53;5.17;;;1.00;;
23266;SDS011;11802;53.160;8.214;2024-03-29T07:35:19;1.77;;;0.80;;
23266;SDS011;11802;53.160;8.214;2024-03-29T07:37:44;2.40;;;0.83;;
23266;SDS011;11802;53.160;8.214;2024-03-29T07:40:12;2.93;;;0.80;;
23266;SDS011;11802;53.160;8.214;2024-03-29T07:42:38;3.17;;;0.80;;
23266;SDS011;11802;53.160;8.214;2024-03-29T07:45:04;3.47;;;0.73;;
23266;SDS011;11802;53.160;8.214;2024-03-29T07:47:30;3.83;;;0.90;;
23266;SDS011;11802;53.160;8.214;2024-03-29T07:49:55;2.13;;;0.80;;
23266;SDS011;11802;53.160;8.214;2024-03-29T07:52:21;2.73;;;0.90;;
23266;SDS011;11802;53.160;8.214;2024-03-29T07:54:47;2.53;;;0.83;;
23266;SDS011;11802;53.160;8.214;2024-03-29T07:57:13;3.03;;;0.90;;
23266;SDS011;11802;53.160;8.214;2024-03-29T07:59:40;1.20;;;0.80;;
23266;SDS011;11802;53.160;8.214;2024-03-29T08:02:06;3.27;;;0.90;;
23266;SDS011;11802;53.160;8.214;2024-03-29T08:04:32;2.53;;;0.90;;
23266;SDS011;11802;53.160;8.214;2024-03-29T08:06:57;2.87;;;0.90;;
23266;SDS011;11802;53.160;8.214;2024-03-29T08:09:23;2.37;;;0.80;;
23266;SDS011;11802;53.160;8.214;2024-03-29T08:11:49;3.73;;;0.73;;
23266;SDS011;11802;53.160;8.214;2024-03-29T08:14:14;2.73;;;0.80;;
23266;SDS011;11802;53.160;8.214;2024-03-29T08:16:40;2.87;;;0.80;;
23266;SDS011;11802;53.160;8.214;2024-03-29T08:19:05;1.53;;;0.80;;
23266;SDS011;11802;53.160;8.214;2024-03-29T08:21:31;3.53;;;1.20;;
23266;SDS011;11802;53.160;8.214;2024-03-29T08:23:56;1.97;;;0.80;;
23266;SDS011;11802;53.160;8.214;2024-03-29T08:26:22;2.50;;;0.70;;
23266;SDS011;11802;53.160;8.214;2024-03-29T08:28:48;4.47;;;1.10;;
23266;SDS011;11802;53.160;8.214;2024-03-29T08:31:14;2.33;;;0.70;;
23266;SDS011;11802;53.160;8.214;2024-03-29T08:33:40;2.83;;;0.80;;
23266;SDS011;11802;53.160;8.214;2024-03-29T08:36:06;1.30;;;0.70;;
23266;SDS011;11802;53.160;8.214;2024-03-29T08:38:33;1.30;;;0.80;;
23266;SDS011;11802;53.160;8.214;2024-03-29T08:40:59;3.10;;;1.07;;
23266;SDS011;11802;53.160;8.214;2024-03-29T08:43:25;2.80;;;1.07;;
23266;SDS011;11802;53.160;8.214;2024-03-29T08:45:53;5.20;;;0.90;;
23266;SDS011;11802;53.160;8.214;2024-03-29T08:48:19;4.20;;;0.93;;
23266;SDS011;11802;53.160;8.214;2024-03-29T08:50:44;3.90;;;0.93;;
23266;SDS011;11802;53.160;8.214;2024-03-29T08:53:11;2.27;;;0.70;;
23266;SDS011;11802;53.160;8.214;2024-03-29T08:55:36;2.07;;;0.80;;
23266;SDS011;11802;53.160;8.214;2024-03-29T08:58:04;3.07;;;0.83;;
23266;SDS011;11802;53.160;8.214;2024-03-29T09:00:30;4.30;;;0.90;;
23266;SDS011;11802;53.160;8.214;2024-03-29T09:02:56;2.47;;;0.90;;
23266;SDS011;11802;53.160;8.214;2024-03-29T09:05:22;3.47;;;0.90;;
23266;SDS011;11802;53.160;8.214;2024-03-29T09:07:48;1.87;;;1.00;;
23266;SDS011;11802;53.160;8.214;2024-03-29T09:10:14;4.23;;;1.13;;
23266;SDS011;11802;53.160;8.214;2024-03-29T09:12:40;3.57;;;1.37;;
23266;SDS011;11802;53.160;8.214;2024-03-29T09:15:06;3.17;;;1.10;;
23266;SDS011;11802;53.160;8.214;2024-03-29T09:17:41;3.87;;;1.20;;
23266;SDS011;11802;53.160;8.214;2024-03-29T09:20:07;3.97;;;1.00;;
23266;SDS011;11802;53.160;8.214;2024-03-29T09:22:34;3.47;;;1.27;;
23266;SDS011;11802;53.160;8.214;2024-03-29T09:24:59;4.03;;;1.70;;
23266;SDS011;11802;53.160;8.214;2024-03-29T09:27:26;2.77;;;1.50;;
23266;SDS011;11802;53.160;8.214;2024-03-29T09:29:52;5.33;;;1.77;;
23266;SDS011;11802;53.160;8.214;2024-03-29T09:32:18;2.27;;;1.20;;
23266;SDS011;11802;53.160;8.214;2024-03-29T09:34:45;1.77;;;1.00;;
23266;SDS011;11802;53.160;8.214;2024-03-29T09:37:11;2.70;;;0.97;;
23266;SDS011;11802;53.160;8.214;2024-03-29T09:39:36;2.77;;;1.30;;
23266;SDS011;11802;53.160;8.214;2024-03-29T09:42:02;2.43;;;1.30;;
23266;SDS011;11802;53.160;8.214;2024-03-29T09:44:31;2.50;;;1.53;;
23266;SDS011;11802;53.160;8.214;2024-03-29T09:47:02;3.33;;;1.57;;
23266;SDS011;11802;53.160;8.214;2024-03-29T09:49:29;2.60;;;1.13;;
23266;SDS011;11802;53.160;8.214;2024-03-29T09:51:57;2.33;;;1.00;;
23266;SDS011;11802;53.160;8.214;2024-03-29T09:54:27;2.60;;;1.20;;
23266;SDS011;11802;53.160;8.214;2024-03-29T09:56:55;3.43;;;1.10;;
23266;SDS011;11802;53.160;8.214;2024-03-29T09:59:22;3.70;;;1.20;;
23266;SDS011;11802;53.160;8.214;2024-03-29T10:01:48;5.00;;;1.40;;
23266;SDS011;11802;53.160;8.214;2024-03-29T10:04:15;5.03;;;1.07;;
23266;SDS011;11802;53.160;8.214;2024-03-29T10:06:44;3.80;;;1.60;;
23266;SDS011;11802;53.160;8.214;2024-03-29T10:09:14;3.37;;;2.00;;
23266;SDS011;11802;53.160;8.214;2024-03-29T10:11:41;2.63;;;1.60;;
23266;SDS011;11802;53.160;8.214;2024-03-29T10:14:07;4.50;;;1.77;;
23266;SDS011;11802;53.160;8.214;2024-03-29T10:16:33;3.20;;;1.67;;
23266;SDS011;11802;53.160;8.214;2024-03-29T10:18:58;4.43;;;2.03;;
23266;SDS011;11802;53.160;8.214;2024-03-29T10:21:24;4.67;;;1.70;;
23266;SDS011;11802;53.160;8.214;2024-03-29T10:23:51;2.63;;;1.47;;
23266;SDS011;11802;53.160;8.214;2024-03-29T10:26:17;3.57;;;1.50;;
23266;SDS011;11802;53.160;8.214;2024-03-29T10:28:43;3.70;;;1.60;;
23266;SDS011;11802;53.160;8.214;2024-03-29T10:31:08;2.53;;;1.40;;
23266;SDS011;11802;53.160;8.214;2024-03-29T10:33:34;3.83;;;2.13;;
23266;SDS011;11802;53.160;8.214;2024-03-29T10:36:00;4.25;;;1.60;;
23266;SDS011;11802;53.160;8.214;2024-03-29T10:38:29;6.07;;;1.40;;
23266;SDS011;11802;53.160;8.214;2024-03-29T10:40:55;4.32;;;1.58;;
23266;SDS011;11802;53.160;8.214;2024-03-29T10:43:22;3.92;;;1.50;;
23266;SDS011;11802;53.160;8.214;2024-03-29T10:45:49;2.20;;;1.33;;
23266;SDS011;11802;53.160;8.214;2024-03-29T10:48:17;2.95;;;1.50;;
23266;SDS011;11802;53.160;8.214;2024-03-29T10:50:46;2.37;;;1.10;;
23266;SDS011;11802;53.160;8.214;2024-03-29T10:53:16;3.30;;;1.20;;
23266;SDS011;11802;53.160;8.214;2024-03-29T10:55:41;4.00;;;1.42;;
23266;SDS011;11802;53.160;8.214;2024-03-29T10:58:09;3.05;;;1.30;;
23266;SDS011;11802;53.160;8.214;2024-03-29T11:00:37;1.63;;;1.08;;
23266;SDS011;11802;53.160;8.214;2024-03-29T11:03:20;2.63;;;1.50;;
23266;SDS011;11802;53.160;8.214;2024-03-29T11:05:53;2.28;;;1.23;;
23266;SDS011;11802;53.160;8.214;2024-03-29T11:08:26;4.05;;;1.40;;
23266;SDS011;11802;53.160;8.214;2024-03-29T11:10:57;3.40;;;1.40;;
23266;SDS011;11802;53.160;8.214;2024-03-29T11:15:59;4.15;;;1.23;;
23266;SDS011;11802;53.160;8.214;2024-03-29T11:18:25;3.15;;;1.17;;
23266;SDS011;11802;53.160;8.214;2024-03-29T11:20:52;4.50;;;1.35;;
23266;SDS011;11802;53.160;8.214;2024-03-29T11:23:19;1.80;;;1.10;;
23266;SDS011;11802;53.160;8.214;2024-03-29T11:25:49;4.38;;;1.40;;
23266;SDS011;11802;53.160;8.214;2024-03-29T11:28:26;2.25;;;1.50;;
23266;SDS011;11802;53.160;8.214;2024-03-29T11:30:58;5.05;;;1.45;;
23266;SDS011;11802;53.160;8.214;2024-03-29T11:35:51;3.03;;;1.70;;
23266;SDS011;11802;53.160;8.214;2024-03-29T11:38:19;3.25;;;1.58;;
23266;SDS011;11802;53.160;8.214;2024-03-29T11:40:55;4.88;;;2.08;;
23266;SDS011;11802;53.160;8.214;2024-03-29T11:43:26;4.13;;;1.80;;
23266;SDS011;11802;53.160;8.214;2024-03-29T11:45:53;3.88;;;1.45;;
23266;SDS011;11802;53.160;8.214;2024-03-29T11:48:21;4.97;;;2.30;;
23266;SDS011;11802;53.160;8.214;2024-03-29T11:50:51;3.05;;;1.50;;
23266;SDS011;11802;53.160;8.214;2024-03-29T11:53:17;5.22;;;2.40;;
23266;SDS011;11802;53.160;8.214;2024-03-29T11:55:42;3.42;;;1.30;;
23266;SDS011;11802;53.160;8.214;2024-03-29T11:58:08;3.63;;;1.77;;
23266;SDS011;11802;53.160;8.214;2024-03-29T12:00:34;5.63;;;1.40;;
23266;SDS011;11802;53.160;8.214;2024-03-29T12:02:59;3.03;;;1.38;;
23266;SDS011;11802;53.160;8.214;2024-03-29T12:05:25;2.20;;;1.20;;
23266;SDS011;11802;53.160;8.214;2024-03-29T12:07:51;4.15;;;1.58;;
23266;SDS011;11802;53.160;8.214;2024-03-29T12:10:17;5.93;;;1.90;;
23266;SDS011;11802;53.160;8.214;2024-03-29T12:12:42;3.15;;;1.25;;
23266;SDS011;11802;53.160;8.214;2024-03-29T12:15:09;3.13;;;1.30;;
23266;SDS011;11802;53.160;8.214;2024-03-29T12:17:35;2.80;;;1.38;;
23266;SDS011;11802;53.160;8.214;2024-03-29T12:20:03;3.10;;;1.55;;
23266;SDS011;11802;53.160;8.214;2024-03-29T12:22:31;3.67;;;1.40;;
23266;SDS011;11802;53.160;8.214;2024-03-29T12:24:58;2.97;;;1.38;;
23266;SDS011;11802;53.160;8.214;2024-03-29T12:27:24;1.73;;;1.02;;
23266;SDS011;11802;53.160;8.214;2024-03-29T12:29:50;3.83;;;1.35;;
23266;SDS011;11802;53.160;8.214;2024-03-29T12:32:19;5.85;;;1.92;;
23266;SDS011;11802;53.160;8.214;2024-03-29T12:34:45;3.13;;;1.30;;
23266;SDS011;11802;53.160;8.214;2024-03-29T12:37:11;2.65;;;1.23;;
23266;SDS011;11802;53.160;8.214;2024-03-29T12:39:37;3.67;;;1.52;;
23266;SDS011;11802;53.160;8.214;2024-03-29T12:42:07;4.28;;;1.40;;
23266;SDS011;11802;53.160;8.214;2024-03-29T12:44:32;2.58;;;1.48;;
23266;SDS011;11802;53.160;8.214;2024-03-29T12:46:59;3.67;;;1.55;;
23266;SDS011;11802;53.160;8.214;2024-03-29T12:49:25;5.00;;;1.65;;
23266;SDS011;11802;53.160;8.214;2024-03-29T12:51:51;4.18;;;1.42;;
23266;SDS011;11802;53.160;8.214;2024-03-29T12:54:17;2.97;;;1.20;;
23266;SDS011;11802;53.160;8.214;2024-03-29T12:56:43;2.80;;;1.45;;
23266;SDS011;11802;53.160;8.214;2024-03-29T12:59:09;2.95;;;1.33;;
23266;SDS011;11802;53.160;8.214;2024-03-29T13:01:35;4.20;;;1.40;;
23266;SDS011;11802;53.160;8.214;2024-03-29T13:04:00;5.55;;;1.40;;
23266;SDS011;11802;53.160;8.214;2024-03-29T13:06:26;3.65;;;1.50;;
23266;SDS011;11802;53.160;8.214;2024-03-29T13:08:52;3.00;;;1.50;;
23266;SDS011;11802;53.160;8.214;2024-03-29T13:11:18;3.85;;;1.73;;
23266;SDS011;11802;53.160;8.214;2024-03-29T13:13:44;3.85;;;1.52;;
23266;SDS011;11802;53.160;8.214;2024-03-29T13:16:10;4.60;;;1.80;;
23266;SDS011;11802;53.160;8.214;2024-03-29T13:18:35;4.00;;;1.88;;
23266;SDS011;11802;53.160;8.214;2024-03-29T13:21:01;2.53;;;1.77;;
23266;SDS011;11802;53.160;8.214;2024-03-29T13:23:27;2.80;;;1.60;;
23266;SDS011;11802;53.160;8.214;2024-03-29T13:25:53;3.65;;;1.98;;
23266;SDS011;11802;53.160;8.214;2024-03-29T13:28:21;3.37;;;1.80;;
23266;SDS011;11802;53.160;8.214;2024-03-29T13:30:46;5.40;;;1.90;;
23266;SDS011;11802;53.160;8.214;2024-03-29T13:33:14;4.22;;;2.05;;
23266;SDS011;11802;53.160;8.214;2024-03-29T13:35:41;3.35;;;2.10;;
23266;SDS011;11802;53.160;8.214;2024-03-29T13:38:07;2.78;;;1.83;;
23266;SDS011;11802;53.160;8.214;2024-03-29T13:40:32;5.38;;;2.20;;
23266;SDS011;11802;53.160;8.214;2024-03-29T13:42:59;2.95;;;2.10;;
23266;SDS011;11802;53.160;8.214;2024-03-29T13:45:25;4.90;;;2.15;;
23266;SDS011;11802;53.160;8.214;2024-03-29T13:47:53;9.10;;;3.95;;
23266;SDS011;11802;53.160;8.214;2024-03-29T13:50:18;4.70;;;2.60;;
23266;SDS011;11802;53.160;8.214;2024-03-29T13:52:44;4.93;;;2.87;;
23266;SDS011;11802;53.160;8.214;2024-03-29T13:55:10;6.15;;;2.78;;
23266;SDS011;11802;53.160;8.214;2024-03-29T13:57:36;4.20;;;2.60;;
23266;SDS011;11802;53.160;8.214;2024-03-29T14:00:02;4.03;;;2.72;;
23266;SDS011;11802;53.160;8.214;2024-03-29T14:02:30;3.55;;;2.50;;
23266;SDS011;11802;53.160;8.214;2024-03-29T14:04:56;5.35;;;2.80;;
23266;SDS011;11802;53.160;8.214;2024-03-29T14:07:22;4.15;;;2.38;;
23266;SDS011;11802;53.160;8.214;2024-03-29T14:09:51;6.95;;;3.75;;
23266;SDS011;11802;53.160;8.214;2024-03-29T14:12:17;5.55;;;2.55;;
23266;SDS011;11802;53.160;8.214;2024-03-29T14:14:46;3.78;;;2.40;;
23266;SDS011;11802;53.160;8.214;2024-03-29T14:17:17;5.05;;;2.70;;
23266;SDS011;11802;53.160;8.214;2024-03-29T14:19:43;3.97;;;2.70;;
23266;SDS011;11802;53.160;8.214;2024-03-29T14:22:09;4.32;;;2.20;;
23266;SDS011;11802;53.160;8.214;2024-03-29T14:24:36;4.72;;;2.65;;
23266;SDS011;11802;53.160;8.214;2024-03-29T14:27:04;2.92;;;1.58;;
23266;SDS011;11802;53.160;8.214;2024-03-29T14:29:34;3.60;;;1.77;;
23266;SDS011;11802;53.160;8.214;2024-03-29T14:32:00;3.25;;;1.83;;
23266;SDS011;11802;53.160;8.214;2024-03-29T14:34:26;2.17;;;1.80;;
23266;SDS011;11802;53.160;8.214;2024-03-29T14:36:52;3.55;;;1.40;;
23266;SDS011;11802;53.160;8.214;2024-03-29T14:39:18;5.60;;;2.15;;
23266;SDS011;11802;53.160;8.214;2024-03-29T14:41:45;3.40;;;1.60;;
23266;SDS011;11802;53.160;8.214;2024-03-29T14:44:18;2.90;;;1.10;;
23266;SDS011;11802;53.160;8.214;2024-03-29T14:46:45;2.17;;;1.23;;
23266;SDS011;11802;53.160;8.214;2024-03-29T14:49:12;2.00;;;1.00;;